createdAt,value
2023-05-14T00:00:36.226Z,100894.44
2023-05-14T00:03:20.251Z,100894.66
2023-05-14T00:06:04.262Z,100894.34
2023-05-14T00:08:48.124Z,100872.50
2023-05-14T00:11:31.961Z,100898.22
2023-05-14T00:14:17.325Z,100900.56
2023-05-14T00:17:01.464Z,100903.28
2023-05-14T00:19:45.663Z,100876.53
2023-05-14T00:22:29.584Z,100899.66
2023-05-14T00:25:13.457Z,100908.78
2023-05-14T00:27:57.319Z,100910.72
2023-05-14T00:30:42.657Z,100914.53
2023-05-14T00:33:26.814Z,100919.13
2023-05-14T00:36:10.876Z,100913.72
2023-05-14T00:38:54.766Z,100906.53
2023-05-14T00:41:38.897Z,100918.50
2023-05-14T00:44:22.677Z,100907.72
2023-05-14T00:47:09.317Z,100902.78
2023-05-14T00:49:53.181Z,100912.16
2023-05-14T00:52:38.818Z,100772.09
2023-05-14T00:55:23.710Z,100912.09
2023-05-14T00:58:10.472Z,100901.41
2023-05-14T01:00:54.965Z,100915.84
2023-05-14T01:03:40.613Z,100911.31
2023-05-14T01:06:31.410Z,100916.41
2023-05-14T01:09:23.936Z,100913.34
2023-05-14T01:12:15.507Z,100905.75
2023-05-14T01:15:06.701Z,100893.41
2023-05-14T01:17:54.867Z,100898.06
2023-05-14T01:20:40.199Z,100876.09
2023-05-14T01:23:26.846Z,100884.72
2023-05-14T01:26:10.791Z,100887.22
2023-05-14T01:28:57.534Z,100887.56
2023-05-14T01:31:44.380Z,100868.69
2023-05-14T01:34:31.409Z,100890.06
2023-05-14T01:37:20.208Z,100859.03
2023-05-14T01:40:06.985Z,100894.19
2023-05-14T01:42:52.468Z,100887.75
2023-05-14T01:45:37.442Z,100876.88
2023-05-14T01:48:21.542Z,100889.66
2023-05-14T01:51:05.720Z,100880.88
2023-05-14T01:53:53.437Z,100877.44
2023-05-14T01:56:39.095Z,100883.97
2023-05-14T01:59:25.217Z,100885.03
2023-05-14T02:02:09.311Z,100879.31
2023-05-14T02:04:53.241Z,100883.94
2023-05-14T02:07:37.181Z,100877.00
2023-05-14T02:10:21.575Z,100880.44
2023-05-14T02:13:10.725Z,100880.75
2023-05-14T02:15:55.031Z,100887.72
2023-05-14T02:18:39.407Z,100887.34
2023-05-14T02:21:23.833Z,100890.56
2023-05-14T02:24:07.973Z,100891.94
2023-05-14T02:26:52.548Z,100883.63
2023-05-14T02:29:37.916Z,100891.72
2023-05-14T02:32:22.600Z,100896.72
2023-05-14T02:35:07.625Z,100883.88
2023-05-14T02:37:52.204Z,100906.19
2023-05-14T02:40:38.271Z,100872.31
2023-05-14T02:43:22.262Z,100906.69
2023-05-14T02:46:08.053Z,100902.88
2023-05-14T02:48:51.899Z,100910.81
2023-05-14T02:51:35.803Z,100911.81
2023-05-14T02:54:19.775Z,100912.19
2023-05-14T02:57:03.848Z,100899.72
2023-05-14T02:59:47.741Z,100907.47
2023-05-14T03:02:33.854Z,100919.94
2023-05-14T03:05:18.122Z,100922.50
2023-05-14T03:08:02.172Z,100921.28
2023-05-14T03:10:46.186Z,100917.09
2023-05-14T03:13:30.634Z,100929.31
2023-05-14T03:16:14.590Z,100926.75
2023-05-14T03:19:00.247Z,100924.84
2023-05-14T03:21:44.432Z,100922.84
2023-05-14T03:24:28.810Z,100888.88
2023-05-14T03:27:13.028Z,100918.81
2023-05-14T03:29:56.918Z,100886.22
2023-05-14T03:32:41.411Z,100912.50
2023-05-14T03:35:26.779Z,100922.44
2023-05-14T03:38:10.943Z,100943.97
2023-05-14T03:40:54.820Z,100936.59
2023-05-14T03:43:39.189Z,100926.16
2023-05-14T03:46:23.106Z,100921.09
2023-05-14T03:49:08.037Z,100918.56
2023-05-14T03:51:53.513Z,100924.50
2023-05-14T03:54:38.816Z,100927.66
2023-05-14T03:57:22.785Z,100919.09
2023-05-14T04:00:07.897Z,100933.59
2023-05-14T04:03:01.791Z,100943.91
2023-05-14T04:05:46.315Z,100934.25
2023-05-14T04:08:31.888Z,100943.97
2023-05-14T04:11:17.720Z,100941.75
2023-05-14T04:14:01.984Z,100946.28
2023-05-14T04:16:46.423Z,100938.06
2023-05-14T04:19:30.340Z,100938.06
2023-05-14T04:22:14.153Z,100938.06
2023-05-14T04:25:00.059Z,100930.91
2023-05-14T04:27:44.101Z,100932.19
2023-05-14T04:30:28.035Z,100935.84
2023-05-14T04:33:12.107Z,100936.97
2023-05-14T04:35:56.179Z,100924.63
2023-05-14T04:38:40.214Z,100946.59
2023-05-14T04:41:25.524Z,100939.69
2023-05-14T04:44:09.508Z,100948.03
2023-05-14T04:46:53.359Z,100936.44
2023-05-14T04:49:37.437Z,100942.72
2023-05-14T04:52:21.580Z,100943.34
2023-05-14T04:55:06.293Z,100938.69
2023-05-14T04:57:51.515Z,100932.75
2023-05-14T05:00:35.933Z,100933.69
2023-05-14T05:03:19.925Z,100946.91
2023-05-14T05:06:04.204Z,100943.00
2023-05-14T05:08:48.438Z,100938.91
2023-05-14T05:11:32.570Z,100933.38
2023-05-14T05:14:18.396Z,100938.91
2023-05-14T05:17:02.491Z,100948.81
2023-05-14T05:19:46.784Z,100952.81
2023-05-14T05:22:31.013Z,100937.97
2023-05-14T05:25:15.019Z,100931.50
2023-05-14T05:27:58.936Z,100931.97
2023-05-14T05:30:45.304Z,100934.53
2023-05-14T05:33:29.567Z,100930.91
2023-05-14T05:36:13.551Z,100934.41
2023-05-14T05:38:57.496Z,100940.78
2023-05-14T05:41:41.907Z,100910.88
2023-05-14T05:44:25.764Z,100942.81
2023-05-14T05:47:11.658Z,100945.53
2023-05-14T05:49:55.635Z,100941.31
2023-05-14T05:52:40.317Z,100946.09
2023-05-14T05:55:24.430Z,100946.72
2023-05-14T05:58:08.695Z,100939.97
2023-05-14T06:00:53.520Z,100934.28
2023-05-14T06:03:39.204Z,100907.63
2023-05-14T06:06:23.298Z,100917.06
2023-05-14T06:09:09.038Z,100946.13
2023-05-14T06:11:53.044Z,100947.50
2023-05-14T06:14:37.449Z,100946.44
2023-05-14T06:17:21.349Z,100949.13
2023-05-14T06:20:09.125Z,100941.56
2023-05-14T06:22:53.009Z,100947.75
2023-05-14T06:25:38.146Z,100944.56
2023-05-14T06:28:22.013Z,100934.94
2023-05-14T06:31:06.129Z,100940.50
2023-05-14T06:33:49.985Z,100925.75
2023-05-14T06:36:35.361Z,100943.72
2023-05-14T06:39:19.199Z,100949.66
2023-05-14T06:42:03.489Z,100947.50
2023-05-14T06:44:48.101Z,100931.53
2023-05-14T06:47:32.169Z,100938.16
2023-05-14T06:50:16.196Z,100951.75
2023-05-14T06:53:01.490Z,100949.00
2023-05-14T06:55:45.607Z,100959.81
2023-05-14T06:58:29.496Z,100931.03
2023-05-14T07:01:13.938Z,100946.38
2023-05-14T07:03:58.004Z,100928.88
2023-05-14T07:06:42.025Z,100956.78
2023-05-14T07:09:27.327Z,100970.66
2023-05-14T07:12:11.303Z,100956.00
2023-05-14T07:14:57.015Z,100963.75
2023-05-14T07:17:40.899Z,100953.25
2023-05-14T07:20:25.341Z,100964.06
2023-05-14T07:23:09.535Z,100966.75
2023-05-14T07:25:54.777Z,100945.16
2023-05-14T07:28:38.964Z,100977.03
2023-05-14T07:31:23.114Z,100978.44
2023-05-14T07:34:08.016Z,100989.50
2023-05-14T07:36:51.942Z,100980.06
2023-05-14T07:39:36.095Z,100965.72
2023-05-14T07:42:34.502Z,100970.84
2023-05-14T07:45:20.069Z,100962.81
2023-05-14T07:48:04.187Z,100971.16
2023-05-14T07:50:49.733Z,100966.41
2023-05-14T07:53:33.720Z,100971.56
2023-05-14T07:56:17.617Z,100983.94
2023-05-14T07:59:03.234Z,100991.13
2023-05-14T08:01:47.167Z,100976.19
2023-05-14T08:04:31.068Z,100981.56
2023-05-14T08:07:14.964Z,100985.16
2023-05-14T08:09:59.052Z,100981.41
2023-05-14T08:12:43.087Z,100992.50
2023-05-14T08:15:29.319Z,100997.00
2023-05-14T08:18:13.516Z,100998.81
2023-05-14T08:20:57.941Z,100989.44
2023-05-14T08:23:41.844Z,100978.47
2023-05-14T08:26:25.966Z,100976.03
2023-05-14T08:29:11.234Z,100955.00
2023-05-14T08:31:59.089Z,100978.44
2023-05-14T08:34:44.240Z,100967.88
2023-05-14T08:37:28.170Z,100959.28
2023-05-14T08:40:13.795Z,100964.63
2023-05-14T08:42:58.349Z,100953.91
2023-05-14T08:45:43.235Z,100955.53
2023-05-14T08:48:33.398Z,100948.47
2023-05-14T08:51:17.643Z,100950.56
2023-05-14T08:54:03.813Z,100949.31
2023-05-14T08:56:49.295Z,100945.75
2023-05-14T08:59:34.849Z,100961.38
2023-05-14T09:02:22.149Z,100957.56
2023-05-14T09:05:09.287Z,100961.53
2023-05-14T09:07:53.770Z,100954.78
2023-05-14T09:10:37.775Z,100954.78
2023-05-14T09:13:21.679Z,100953.41
2023-05-14T09:16:06.311Z,100959.56
2023-05-14T09:18:50.519Z,100952.13
2023-05-14T09:21:36.730Z,100953.00
2023-05-14T09:24:22.068Z,100953.47
2023-05-14T09:27:06.667Z,100949.59
2023-05-14T09:29:51.633Z,100943.50
2023-05-14T09:32:41.301Z,100945.38
2023-05-14T09:35:26.486Z,100940.78
2023-05-14T09:38:12.960Z,100944.69
2023-05-14T09:40:57.567Z,100965.28
2023-05-14T09:43:41.421Z,100958.34
2023-05-14T09:46:30.310Z,100962.94
2023-05-14T09:49:14.503Z,100976.84
2023-05-14T09:51:59.270Z,100960.81
2023-05-14T09:54:45.128Z,100953.25
2023-05-14T09:57:29.176Z,100962.06
2023-05-14T10:00:14.238Z,100954.66
2023-05-14T10:03:00.149Z,100958.47
2023-05-14T10:05:45.156Z,100957.97
2023-05-14T10:08:32.350Z,100957.06
2023-05-14T10:11:22.379Z,100954.28
2023-05-14T10:14:10.284Z,100946.75
2023-05-14T10:16:55.526Z,100954.13
2023-05-14T10:19:41.093Z,100938.91
2023-05-14T10:22:28.780Z,100965.88
2023-05-14T10:25:13.067Z,100956.81
2023-05-14T10:27:59.143Z,100949.16
2023-05-14T10:30:46.399Z,100943.72
2023-05-14T10:33:30.412Z,100944.19
2023-05-14T10:36:14.475Z,100945.50
2023-05-14T10:38:58.721Z,100932.16
2023-05-14T10:41:43.868Z,100948.88
2023-05-14T10:44:30.288Z,100950.16
2023-05-14T10:47:14.056Z,100955.16
2023-05-14T10:50:00.490Z,100948.25
2023-05-14T10:52:45.114Z,100955.97
2023-05-14T10:55:28.974Z,100955.59
2023-05-14T10:58:13.776Z,100948.69
2023-05-14T11:00:58.986Z,100958.78
2023-05-14T11:03:45.204Z,100944.88
2023-05-14T11:06:31.463Z,100957.34
2023-05-14T11:09:18.790Z,100953.13
2023-05-14T11:12:02.671Z,100961.91
2023-05-14T11:14:47.975Z,100947.78
2023-05-14T11:17:33.913Z,100945.88
2023-05-14T11:20:18.758Z,100937.28
2023-05-14T11:23:03.562Z,100947.19
2023-05-14T11:25:47.533Z,100940.50
2023-05-14T11:28:31.436Z,100927.75
2023-05-14T11:31:15.628Z,100898.59
2023-05-14T11:34:01.045Z,100916.63
2023-05-14T11:36:45.027Z,100919.38
2023-05-14T11:39:28.904Z,100906.31
2023-05-14T11:42:14.809Z,100892.28
2023-05-14T11:44:58.648Z,100891.38
2023-05-14T11:47:43.281Z,100885.13
2023-05-14T11:50:28.503Z,100867.72
2023-05-14T11:53:12.338Z,100873.53
2023-05-14T11:55:57.785Z,100866.34
2023-05-14T11:58:41.915Z,100857.94
2023-05-14T12:01:25.793Z,100844.34
2023-05-14T12:04:09.726Z,100842.53
2023-05-14T12:06:55.029Z,100836.84
2023-05-14T12:09:43.132Z,100836.50
2023-05-14T12:12:28.110Z,100830.00
2023-05-14T12:15:13.756Z,100828.09
2023-05-14T12:17:57.816Z,100839.88
2023-05-14T12:20:47.138Z,100827.75
2023-05-14T12:23:33.657Z,100829.09
2023-05-14T12:26:17.526Z,100816.69
2023-05-14T12:29:02.614Z,100820.72
2023-05-14T12:31:47.935Z,100822.44
2023-05-14T12:34:32.016Z,100821.94
2023-05-14T12:37:15.909Z,100825.81
2023-05-14T12:40:00.983Z,100838.16
2023-05-14T12:42:45.121Z,100826.63
2023-05-14T12:45:29.172Z,100828.88
2023-05-14T12:48:13.578Z,100791.13
2023-05-14T12:50:57.705Z,100829.94
2023-05-14T12:53:41.807Z,100835.13
2023-05-14T12:56:28.463Z,100824.28
2023-05-14T12:59:12.328Z,100808.50
2023-05-14T13:01:56.452Z,100807.84
2023-05-14T13:04:41.607Z,100820.91
2023-05-14T13:07:25.737Z,100833.00
2023-05-14T13:10:10.526Z,100793.47
2023-05-14T13:12:56.618Z,100820.41
2023-05-14T13:15:40.452Z,100785.59
2023-05-14T13:18:25.675Z,100797.88
2023-05-14T13:21:09.727Z,100792.69
2023-05-14T13:23:53.462Z,100769.28
2023-05-14T13:26:37.472Z,100788.72
2023-05-14T13:29:22.661Z,100803.56
2023-05-14T13:32:07.147Z,100801.44
2023-05-14T13:34:51.030Z,100799.88
2023-05-14T13:37:34.827Z,100803.97
2023-05-14T13:40:18.577Z,100804.06
2023-05-14T13:43:03.805Z,100794.03
2023-05-14T13:45:49.045Z,100783.06
2023-05-14T13:48:32.986Z,100788.28
2023-05-14T13:51:17.050Z,100749.19
2023-05-14T13:54:00.960Z,100781.31
2023-05-14T13:56:44.871Z,100779.59
2023-05-14T13:59:29.178Z,100782.72
2023-05-14T14:02:14.804Z,100741.38
2023-05-14T14:04:58.601Z,100762.66
2023-05-14T14:07:42.739Z,100754.78
2023-05-14T14:10:26.573Z,100760.63
2023-05-14T14:13:11.067Z,100752.84
2023-05-14T14:15:54.949Z,100754.84
2023-05-14T14:18:40.250Z,100747.88
2023-05-14T14:21:24.116Z,100747.19
2023-05-14T14:24:08.417Z,100751.75
2023-05-14T14:26:52.219Z,100749.31
2023-05-14T14:29:36.773Z,100743.16
2023-05-14T14:32:20.605Z,100732.84
2023-05-14T14:35:06.560Z,100738.28
2023-05-14T14:37:52.386Z,100733.41
2023-05-14T14:40:36.587Z,100736.13
2023-05-14T14:43:20.423Z,100745.19
2023-05-14T14:46:04.418Z,100708.66
2023-05-14T14:48:48.467Z,100728.78
2023-05-14T14:51:33.631Z,100716.44
2023-05-14T14:54:17.594Z,100707.38
2023-05-14T14:57:01.485Z,100710.78
2023-05-14T14:59:45.483Z,100709.63
2023-05-14T15:02:29.748Z,100706.16
2023-05-14T15:05:13.708Z,100697.13
2023-05-14T15:07:58.939Z,100690.69
2023-05-14T15:10:43.047Z,100687.25
2023-05-14T15:13:27.157Z,100689.81
2023-05-14T15:16:11.515Z,100659.25
2023-05-14T15:18:55.480Z,100685.88
2023-05-14T15:21:39.614Z,100684.66
2023-05-14T15:24:26.242Z,100688.47
2023-05-14T15:27:10.445Z,100721.88
2023-05-14T15:29:54.382Z,100722.44
2023-05-14T15:32:38.371Z,100717.66
2023-05-14T15:35:22.456Z,100712.34
2023-05-14T15:38:07.915Z,100716.00
2023-05-14T15:40:53.133Z,100708.59
2023-05-14T15:43:37.131Z,100707.31
2023-05-14T15:46:22.878Z,100702.34
2023-05-14T15:49:06.844Z,100718.56
2023-05-14T15:51:50.732Z,100699.56
2023-05-14T15:54:34.607Z,100713.09
2023-05-14T15:57:20.272Z,100717.56
2023-05-14T16:00:10.073Z,100726.47
2023-05-14T16:02:54.037Z,100722.47
2023-05-14T16:05:38.108Z,100706.41
2023-05-14T16:08:22.018Z,100718.59
2023-05-14T16:11:06.371Z,100709.00
2023-05-14T16:13:51.871Z,100706.25
2023-05-14T16:16:35.740Z,100704.34
2023-05-14T16:19:19.721Z,100706.06
2023-05-14T16:22:03.558Z,100694.91
2023-05-14T16:24:47.355Z,100685.00
2023-05-14T16:27:31.185Z,100681.16
2023-05-14T16:30:16.678Z,100685.28
2023-05-14T16:33:00.590Z,100683.59
2023-05-14T16:35:45.493Z,100696.16
2023-05-14T16:38:29.484Z,100697.50
2023-05-14T16:41:13.414Z,100679.34
2023-05-14T16:43:57.222Z,100696.00
2023-05-14T16:46:42.576Z,100696.25
2023-05-14T16:49:26.389Z,100693.97
2023-05-14T16:52:10.565Z,100705.34
2023-05-14T16:54:54.464Z,100680.13
2023-05-14T16:57:38.354Z,100708.03
2023-05-14T17:00:22.372Z,100710.44
2023-05-14T17:03:07.842Z,100708.72
2023-05-14T17:05:52.296Z,100681.59
2023-05-14T17:08:36.175Z,100706.13
2023-05-14T17:11:21.139Z,100704.94
2023-05-14T17:14:05.116Z,100714.94
2023-05-14T17:16:49.354Z,100713.00
2023-05-14T17:19:34.574Z,100684.94
2023-05-14T17:22:18.423Z,100717.00
2023-05-14T17:25:02.346Z,100700.84
2023-05-14T17:27:47.870Z,100698.75
2023-05-14T17:30:31.821Z,100691.47
2023-05-14T17:33:15.653Z,100697.44
2023-05-14T17:36:01.074Z,100695.34
2023-05-14T17:38:45.108Z,100700.66
2023-05-14T17:41:29.076Z,100697.75
2023-05-14T17:44:13.327Z,100695.91
2023-05-14T17:46:57.638Z,100692.81
2023-05-14T17:49:41.909Z,100703.31
2023-05-14T17:52:27.204Z,100712.19
2023-05-14T17:55:11.189Z,100702.13
2023-05-14T17:57:55.092Z,100695.09
2023-05-14T18:00:39.073Z,100704.69
2023-05-14T18:03:23.017Z,100711.44
2023-05-14T18:06:07.260Z,100701.19
2023-05-14T18:08:52.690Z,100715.59
2023-05-14T18:11:36.490Z,100667.03
2023-05-14T18:14:20.347Z,100703.53
2023-05-14T18:17:05.085Z,100706.09
2023-05-14T18:19:49.249Z,100711.97
2023-05-14T18:22:33.248Z,100703.84
2023-05-14T18:25:19.188Z,100710.03
2023-05-14T18:28:03.499Z,100709.41
2023-05-14T18:30:47.693Z,100718.25
2023-05-14T18:33:31.923Z,100717.72
2023-05-14T18:36:15.988Z,100723.16
2023-05-14T18:38:59.874Z,100715.69
2023-05-14T18:41:45.610Z,100731.19
2023-05-14T18:44:29.527Z,100731.44
2023-05-14T18:47:13.696Z,100630.63
2023-05-14T18:50:00.546Z,100726.53
2023-05-14T18:52:44.860Z,100721.13
2023-05-14T18:55:29.210Z,100728.72
2023-05-14T18:58:15.584Z,100730.63
2023-05-14T19:01:00.047Z,100691.66
2023-05-14T19:03:44.394Z,100691.88
2023-05-14T19:06:29.128Z,100689.31
2023-05-14T19:09:14.874Z,100719.44
2023-05-14T19:11:59.307Z,100715.06
2023-05-14T19:14:45.488Z,100703.84
2023-05-14T19:17:32.788Z,100712.25
2023-05-14T19:20:17.258Z,100714.28
2023-05-14T19:23:01.400Z,100704.78
2023-05-14T19:25:46.015Z,100699.97
2023-05-14T19:28:30.360Z,100684.22
2023-05-14T19:31:16.043Z,100683.31
2023-05-14T19:34:00.196Z,100682.94
2023-05-14T19:36:44.415Z,100665.84
2023-05-14T19:39:28.383Z,100672.78
2023-05-14T19:42:12.505Z,100670.63
2023-05-14T19:44:56.678Z,100655.84
2023-05-14T19:47:43.109Z,100666.75
2023-05-14T19:50:27.377Z,100665.09
2023-05-14T19:53:11.414Z,100651.34
2023-05-14T19:55:55.426Z,100664.94
2023-05-14T19:58:39.548Z,100625.00
2023-05-14T20:01:23.852Z,100650.44
2023-05-14T20:04:09.371Z,100639.53
2023-05-14T20:06:54.236Z,100635.13
2023-05-14T20:09:38.498Z,100630.50
2023-05-14T20:12:22.655Z,100629.63
2023-05-14T20:15:07.930Z,100587.44
2023-05-14T20:17:52.162Z,100635.03
2023-05-14T20:20:37.557Z,100622.31
2023-05-14T20:23:21.638Z,100614.78
2023-05-14T20:26:05.741Z,100619.75
2023-05-14T20:28:49.720Z,100618.00
2023-05-14T20:31:33.625Z,100621.72
2023-05-14T20:34:17.473Z,100618.84
2023-05-14T20:37:05.002Z,100614.34
2023-05-14T20:39:48.907Z,100592.59
2023-05-14T20:42:33.216Z,100590.34
2023-05-14T20:45:17.500Z,100607.59
2023-05-14T20:48:01.355Z,100612.09
2023-05-14T20:50:45.774Z,100607.72
2023-05-14T20:53:31.203Z,100604.00
2023-05-14T20:56:15.258Z,100606.69
2023-05-14T20:58:59.102Z,100601.28
2023-05-14T21:01:43.979Z,100469.69
2023-05-14T21:04:27.917Z,100613.47
2023-05-14T21:07:11.868Z,100625.06
2023-05-14T21:09:57.104Z,100614.41
2023-05-14T21:12:42.606Z,100618.28
2023-05-14T21:15:27.427Z,100602.47
2023-05-14T21:18:12.109Z,100586.47
2023-05-14T21:20:55.918Z,100576.09
2023-05-14T21:23:39.687Z,100561.25
2023-05-14T21:26:24.919Z,100566.59
2023-05-14T21:29:08.728Z,100569.09
2023-05-14T21:31:52.500Z,100555.50
2023-05-14T21:34:36.303Z,100558.13
2023-05-14T21:37:20.096Z,100529.59
2023-05-14T21:40:03.876Z,100546.59
2023-05-14T21:42:51.551Z,100534.44
2023-05-14T21:45:36.248Z,100535.50
2023-05-14T21:48:21.077Z,100529.50
2023-05-14T21:51:05.721Z,100464.00
2023-05-14T21:53:52.279Z,100500.00
2023-05-14T21:56:37.191Z,100546.25
2023-05-14T21:59:22.660Z,100539.06
2023-05-14T22:02:07.576Z,100498.50
2023-05-14T22:04:51.810Z,100534.13
2023-05-14T22:07:35.672Z,100527.47
2023-05-14T22:10:20.767Z,100531.16
2023-05-14T22:13:04.980Z,100524.44
2023-05-14T22:15:55.479Z,100478.25
2023-05-14T22:18:45.153Z,100516.94
2023-05-14T22:21:28.999Z,100526.94
2023-05-14T22:24:12.884Z,100518.59
2023-05-14T22:26:56.715Z,100534.88
2023-05-14T22:29:40.501Z,100531.19
2023-05-14T22:32:25.902Z,100524.81
2023-05-14T22:35:11.309Z,100510.75
2023-05-14T22:37:55.364Z,100489.03
2023-05-14T22:40:39.363Z,100525.25
2023-05-14T22:43:23.295Z,100489.63
2023-05-14T22:46:07.347Z,100511.41
2023-05-14T22:48:52.531Z,100497.34
2023-05-14T22:51:36.379Z,100495.97
2023-05-14T22:54:20.219Z,100490.50
2023-05-14T22:57:04.454Z,100484.97
2023-05-14T22:59:48.263Z,100498.28
2023-05-14T23:02:32.135Z,100491.16
2023-05-14T23:05:17.706Z,100486.41
2023-05-14T23:08:01.516Z,100491.81
2023-05-14T23:10:45.597Z,100478.31
2023-05-14T23:13:29.572Z,100471.25
2023-05-14T23:16:13.336Z,100469.03
2023-05-14T23:18:57.519Z,100460.09
2023-05-14T23:21:42.901Z,100458.47
2023-05-14T23:24:27.217Z,100474.75
2023-05-14T23:27:12.515Z,100459.50
2023-05-14T23:29:56.317Z,100473.28
2023-05-14T23:32:40.200Z,100458.59
2023-05-14T23:35:24.212Z,100468.84
2023-05-14T23:38:09.606Z,100478.19
2023-05-14T23:40:53.436Z,100465.84
2023-05-14T23:43:37.366Z,100463.84
2023-05-14T23:46:21.147Z,100451.78
2023-05-14T23:49:05.224Z,100421.91
2023-05-14T23:51:49.076Z,100439.06
2023-05-14T23:54:34.396Z,100429.41
2023-05-14T23:57:18.148Z,100433.25
